sensor_id;sensor_type;location;lat;lon;timestamp;P1;durP1;ratioP1;P2;durP2;ratioP2
66927;SDS011;59882;45.624;11.698;2023-08-31T00:00:29;5.80;;;1.75;;
66927;SDS011;59882;45.624;11.698;2023-08-31T00:02:56;6.43;;;1.73;;
66927;SDS011;59882;45.624;11.698;2023-08-31T00:05:22;4.43;;;2.00;;
66927;SDS011;59882;45.624;11.698;2023-08-31T00:07:49;5.55;;;1.70;;
66927;SDS011;59882;45.624;11.698;2023-08-31T00:10:16;5.32;;;1.90;;
66927;SDS011;59882;45.624;11.698;2023-08-31T00:12:42;4.25;;;1.88;;
66927;SDS011;59882;45.624;11.698;2023-08-31T00:15:08;4.10;;;1.63;;
66927;SDS011;59882;45.624;11.698;2023-08-31T00:17:34;5.00;;;1.88;;
66927;SDS011;59882;45.624;11.698;2023-08-31T00:20:00;5.15;;;1.90;;
66927;SDS011;59882;45.624;11.698;2023-08-31T00:22:30;4.82;;;2.20;;
66927;SDS011;59882;45.624;11.698;2023-08-31T00:24:56;4.20;;;1.93;;
66927;SDS011;59882;45.624;11.698;2023-08-31T00:27:22;4.35;;;1.98;;
66927;SDS011;59882;45.624;11.698;2023-08-31T00:29:47;5.97;;;1.70;;
66927;SDS011;59882;45.624;11.698;2023-08-31T00:32:14;5.38;;;1.55;;
66927;SDS011;59882;45.624;11.698;2023-08-31T00:34:40;5.20;;;1.92;;
66927;SDS011;59882;45.624;11.698;2023-08-31T00:37:06;6.23;;;1.90;;
66927;SDS011;59882;45.624;11.698;2023-08-31T00:39:31;5.65;;;1.92;;
66927;SDS011;59882;45.624;11.698;2023-08-31T00:41:58;5.47;;;1.95;;
66927;SDS011;59882;45.624;11.698;2023-08-31T00:44:24;7.77;;;2.17;;
66927;SDS011;59882;45.624;11.698;2023-08-31T00:46:50;6.25;;;2.20;;
66927;SDS011;59882;45.624;11.698;2023-08-31T00:49:16;4.60;;;1.50;;
66927;SDS011;59882;45.624;11.698;2023-08-31T00:51:43;6.77;;;2.20;;
66927;SDS011;59882;45.624;11.698;2023-08-31T00:54:13;10.33;;;2.50;;
66927;SDS011;59882;45.624;11.698;2023-08-31T00:56:41;5.65;;;2.10;;
66927;SDS011;59882;45.624;11.698;2023-08-31T00:59:07;5.68;;;2.30;;
66927;SDS011;59882;45.624;11.698;2023-08-31T01:10:06;5.13;;;2.50;;
66927;SDS011;59882;45.624;11.698;2023-08-31T01:12:44;5.23;;;1.87;;
66927;SDS011;59882;45.624;11.698;2023-08-31T01:15:15;4.82;;;2.10;;
66927;SDS011;59882;45.624;11.698;2023-08-31T01:17:52;6.65;;;2.42;;
66927;SDS011;59882;45.624;11.698;2023-08-31T01:20:24;5.28;;;1.60;;
66927;SDS011;59882;45.624;11.698;2023-08-31T01:23:04;7.57;;;2.28;;
66927;SDS011;59882;45.624;11.698;2023-08-31T01:25:35;5.17;;;2.17;;
66927;SDS011;59882;45.624;11.698;2023-08-31T01:28:01;5.35;;;2.10;;
66927;SDS011;59882;45.624;11.698;2023-08-31T01:30:32;4.57;;;2.28;;
66927;SDS011;59882;45.624;11.698;2023-08-31T01:32:58;5.38;;;2.13;;
66927;SDS011;59882;45.624;11.698;2023-08-31T01:35:23;4.90;;;1.73;;
66927;SDS011;59882;45.624;11.698;2023-08-31T01:42:49;4.75;;;1.70;;
66927;SDS011;59882;45.624;11.698;2023-08-31T01:45:19;5.10;;;2.10;;
66927;SDS011;59882;45.624;11.698;2023-08-31T01:47:46;8.65;;;2.22;;
66927;SDS011;59882;45.624;11.698;2023-08-31T01:50:12;6.17;;;2.40;;
66927;SDS011;59882;45.624;11.698;2023-08-31T01:52:37;4.60;;;2.45;;
66927;SDS011;59882;45.624;11.698;2023-08-31T01:55:04;5.80;;;2.40;;
66927;SDS011;59882;45.624;11.698;2023-08-31T01:57:30;5.63;;;2.20;;
66927;SDS011;59882;45.624;11.698;2023-08-31T01:59:57;6.38;;;2.47;;
66927;SDS011;59882;45.624;11.698;2023-08-31T02:02:23;6.88;;;2.60;;
66927;SDS011;59882;45.624;11.698;2023-08-31T02:04:48;6.63;;;2.20;;
66927;SDS011;59882;45.624;11.698;2023-08-31T02:07:16;5.25;;;2.47;;
66927;SDS011;59882;45.624;11.698;2023-08-31T02:09:41;8.57;;;2.80;;
66927;SDS011;59882;45.624;11.698;2023-08-31T02:12:07;6.73;;;2.50;;
66927;SDS011;59882;45.624;11.698;2023-08-31T02:14:34;5.60;;;2.65;;
66927;SDS011;59882;45.624;11.698;2023-08-31T02:17:00;5.68;;;2.17;;
66927;SDS011;59882;45.624;11.698;2023-08-31T02:19:26;5.20;;;1.83;;
66927;SDS011;59882;45.624;11.698;2023-08-31T02:21:51;6.88;;;2.22;;
66927;SDS011;59882;45.624;11.698;2023-08-31T02:24:17;8.00;;;2.40;;
66927;SDS011;59882;45.624;11.698;2023-08-31T02:26:43;5.90;;;2.70;;
66927;SDS011;59882;45.624;11.698;2023-08-31T02:29:08;4.83;;;2.27;;
66927;SDS011;59882;45.624;11.698;2023-08-31T02:31:34;6.10;;;2.93;;
66927;SDS011;59882;45.624;11.698;2023-08-31T02:33:59;7.13;;;2.95;;
66927;SDS011;59882;45.624;11.698;2023-08-31T02:36:25;7.87;;;3.20;;
66927;SDS011;59882;45.624;11.698;2023-08-31T02:38:51;10.77;;;3.47;;
66927;SDS011;59882;45.624;11.698;2023-08-31T02:41:18;10.20;;;4.27;;
66927;SDS011;59882;45.624;11.698;2023-08-31T02:43:43;9.07;;;3.63;;
66927;SDS011;59882;45.624;11.698;2023-08-31T02:46:09;6.33;;;3.43;;
66927;SDS011;59882;45.624;11.698;2023-08-31T02:48:35;11.50;;;3.67;;
66927;SDS011;59882;45.624;11.698;2023-08-31T02:51:00;10.37;;;3.90;;
66927;SDS011;59882;45.624;11.698;2023-08-31T02:53:27;10.77;;;4.10;;
66927;SDS011;59882;45.624;11.698;2023-08-31T02:55:56;8.48;;;3.70;;
66927;SDS011;59882;45.624;11.698;2023-08-31T02:58:22;8.88;;;4.15;;
66927;SDS011;59882;45.624;11.698;2023-08-31T03:00:48;8.97;;;3.80;;
66927;SDS011;59882;45.624;11.698;2023-08-31T03:03:15;7.70;;;3.90;;
66927;SDS011;59882;45.624;11.698;2023-08-31T03:05:41;10.43;;;4.40;;
66927;SDS011;59882;45.624;11.698;2023-08-31T03:08:06;7.70;;;3.67;;
66927;SDS011;59882;45.624;11.698;2023-08-31T03:10:32;8.65;;;3.17;;
66927;SDS011;59882;45.624;11.698;2023-08-31T03:12:57;8.30;;;3.43;;
66927;SDS011;59882;45.624;11.698;2023-08-31T03:15:23;6.63;;;3.37;;
66927;SDS011;59882;45.624;11.698;2023-08-31T03:17:49;10.73;;;3.83;;
66927;SDS011;59882;45.624;11.698;2023-08-31T03:20:14;7.00;;;3.60;;
66927;SDS011;59882;45.624;11.698;2023-08-31T03:22:40;10.55;;;4.38;;
66927;SDS011;59882;45.624;11.698;2023-08-31T03:25:06;8.20;;;4.03;;
66927;SDS011;59882;45.624;11.698;2023-08-31T03:27:32;9.68;;;3.90;;
66927;SDS011;59882;45.624;11.698;2023-08-31T03:29:57;10.37;;;4.40;;
66927;SDS011;59882;45.624;11.698;2023-08-31T03:32:23;10.40;;;4.13;;
66927;SDS011;59882;45.624;11.698;2023-08-31T03:34:48;9.73;;;4.23;;
66927;SDS011;59882;45.624;11.698;2023-08-31T03:37:15;10.75;;;4.15;;
66927;SDS011;59882;45.624;11.698;2023-08-31T03:39:40;8.90;;;4.20;;
66927;SDS011;59882;45.624;11.698;2023-08-31T03:42:07;8.38;;;4.07;;
66927;SDS011;59882;45.624;11.698;2023-08-31T03:44:34;8.57;;;4.00;;
66927;SDS011;59882;45.624;11.698;2023-08-31T03:47:00;11.02;;;4.28;;
66927;SDS011;59882;45.624;11.698;2023-08-31T03:49:26;10.90;;;3.90;;
66927;SDS011;59882;45.624;11.698;2023-08-31T03:51:52;9.17;;;4.00;;
66927;SDS011;59882;45.624;11.698;2023-08-31T03:54:18;10.23;;;4.65;;
66927;SDS011;59882;45.624;11.698;2023-08-31T03:56:44;10.20;;;4.40;;
66927;SDS011;59882;45.624;11.698;2023-08-31T03:59:10;6.73;;;3.53;;
66927;SDS011;59882;45.624;11.698;2023-08-31T04:01:36;10.10;;;4.20;;
66927;SDS011;59882;45.624;11.698;2023-08-31T04:04:01;14.60;;;5.40;;
66927;SDS011;59882;45.624;11.698;2023-08-31T04:06:29;14.43;;;6.65;;
66927;SDS011;59882;45.624;11.698;2023-08-31T04:08:54;13.80;;;6.90;;
66927;SDS011;59882;45.624;11.698;2023-08-31T04:11:20;22.73;;;10.25;;
66927;SDS011;59882;45.624;11.698;2023-08-31T04:13:46;26.27;;;11.83;;
66927;SDS011;59882;45.624;11.698;2023-08-31T04:16:11;22.00;;;10.82;;
66927;SDS011;59882;45.624;11.698;2023-08-31T04:18:37;22.70;;;11.37;;
66927;SDS011;59882;45.624;11.698;2023-08-31T04:21:03;31.30;;;10.97;;
66927;SDS011;59882;45.624;11.698;2023-08-31T04:23:28;23.40;;;11.65;;
66927;SDS011;59882;45.624;11.698;2023-08-31T04:25:54;23.45;;;12.23;;
66927;SDS011;59882;45.624;11.698;2023-08-31T04:28:22;30.07;;;12.10;;
66927;SDS011;59882;45.624;11.698;2023-08-31T04:30:49;23.95;;;12.45;;
66927;SDS011;59882;45.624;11.698;2023-08-31T04:33:14;24.98;;;11.90;;
66927;SDS011;59882;45.624;11.698;2023-08-31T04:35:41;25.25;;;13.27;;
66927;SDS011;59882;45.624;11.698;2023-08-31T04:38:06;25.03;;;12.53;;
66927;SDS011;59882;45.624;11.698;2023-08-31T04:40:32;26.92;;;12.70;;
66927;SDS011;59882;45.624;11.698;2023-08-31T04:42:58;28.83;;;13.40;;
66927;SDS011;59882;45.624;11.698;2023-08-31T04:45:23;27.40;;;13.45;;
66927;SDS011;59882;45.624;11.698;2023-08-31T04:47:49;20.00;;;10.90;;
66927;SDS011;59882;45.624;11.698;2023-08-31T04:50:16;22.67;;;10.07;;
66927;SDS011;59882;45.624;11.698;2023-08-31T04:52:42;17.50;;;8.37;;
66927;SDS011;59882;45.624;11.698;2023-08-31T04:55:08;18.70;;;7.78;;
66927;SDS011;59882;45.624;11.698;2023-08-31T04:57:34;15.65;;;7.57;;
66927;SDS011;59882;45.624;11.698;2023-08-31T04:59:59;22.07;;;7.00;;
66927;SDS011;59882;45.624;11.698;2023-08-31T05:02:25;11.77;;;6.63;;
66927;SDS011;59882;45.624;11.698;2023-08-31T05:04:52;13.13;;;5.25;;
66927;SDS011;59882;45.624;11.698;2023-08-31T05:07:18;15.00;;;5.00;;
66927;SDS011;59882;45.624;11.698;2023-08-31T05:09:43;11.15;;;4.40;;
66927;SDS011;59882;45.624;11.698;2023-08-31T05:12:09;16.40;;;4.63;;
66927;SDS011;59882;45.624;11.698;2023-08-31T05:14:34;9.43;;;4.13;;
66927;SDS011;59882;45.624;11.698;2023-08-31T05:17:02;10.00;;;4.75;;
66927;SDS011;59882;45.624;11.698;2023-08-31T05:19:29;11.73;;;4.72;;
66927;SDS011;59882;45.624;11.698;2023-08-31T05:21:55;8.30;;;3.75;;
66927;SDS011;59882;45.624;11.698;2023-08-31T05:24:21;10.47;;;3.67;;
66927;SDS011;59882;45.624;11.698;2023-08-31T05:26:47;7.68;;;3.50;;
66927;SDS011;59882;45.624;11.698;2023-08-31T05:29:13;7.47;;;3.50;;
66927;SDS011;59882;45.624;11.698;2023-08-31T05:31:39;8.23;;;3.50;;
66927;SDS011;59882;45.624;11.698;2023-08-31T05:34:04;8.27;;;3.10;;
66927;SDS011;59882;45.624;11.698;2023-08-31T05:36:30;10.60;;;3.40;;
66927;SDS011;59882;45.624;11.698;2023-08-31T05:38:56;8.13;;;3.00;;
66927;SDS011;59882;45.624;11.698;2023-08-31T05:41:21;9.87;;;3.67;;
66927;SDS011;59882;45.624;11.698;2023-08-31T05:43:47;7.43;;;3.50;;
66927;SDS011;59882;45.624;11.698;2023-08-31T05:46:12;6.90;;;3.07;;
66927;SDS011;59882;45.624;11.698;2023-08-31T05:48:38;7.53;;;3.25;;
66927;SDS011;59882;45.624;11.698;2023-08-31T05:51:04;8.77;;;2.93;;
66927;SDS011;59882;45.624;11.698;2023-08-31T05:53:30;8.85;;;3.35;;
66927;SDS011;59882;45.624;11.698;2023-08-31T05:55:56;9.67;;;3.30;;
66927;SDS011;59882;45.624;11.698;2023-08-31T05:58:32;6.00;;;2.80;;
66927;SDS011;59882;45.624;11.698;2023-08-31T06:01:03;8.35;;;3.00;;
66927;SDS011;59882;45.624;11.698;2023-08-31T06:03:29;8.00;;;2.67;;
66927;SDS011;59882;45.624;11.698;2023-08-31T06:05:56;9.85;;;3.08;;
66927;SDS011;59882;45.624;11.698;2023-08-31T06:08:22;7.43;;;2.83;;
66927;SDS011;59882;45.624;11.698;2023-08-31T06:10:48;9.63;;;3.30;;
66927;SDS011;59882;45.624;11.698;2023-08-31T06:13:14;8.32;;;2.58;;
66927;SDS011;59882;45.624;11.698;2023-08-31T06:15:40;11.30;;;2.95;;
66927;SDS011;59882;45.624;11.698;2023-08-31T06:18:06;8.40;;;2.60;;
66927;SDS011;59882;45.624;11.698;2023-08-31T06:20:32;6.55;;;2.47;;
66927;SDS011;59882;45.624;11.698;2023-08-31T06:22:58;5.13;;;2.50;;
66927;SDS011;59882;45.624;11.698;2023-08-31T06:25:24;7.38;;;3.00;;
66927;SDS011;59882;45.624;11.698;2023-08-31T06:27:50;6.97;;;2.58;;
66927;SDS011;59882;45.624;11.698;2023-08-31T06:30:16;7.33;;;2.30;;
66927;SDS011;59882;45.624;11.698;2023-08-31T06:32:43;5.63;;;2.60;;
66927;SDS011;59882;45.624;11.698;2023-08-31T06:35:10;9.05;;;2.45;;
66927;SDS011;59882;45.624;11.698;2023-08-31T06:37:37;7.25;;;2.45;;
66927;SDS011;59882;45.624;11.698;2023-08-31T06:40:03;6.83;;;2.00;;
66927;SDS011;59882;45.624;11.698;2023-08-31T06:42:29;6.47;;;2.22;;
66927;SDS011;59882;45.624;11.698;2023-08-31T06:44:55;8.10;;;2.47;;
66927;SDS011;59882;45.624;11.698;2023-08-31T06:47:22;5.83;;;2.20;;
66927;SDS011;59882;45.624;11.698;2023-08-31T06:49:48;5.68;;;2.67;;
66927;SDS011;59882;45.624;11.698;2023-08-31T06:52:13;5.80;;;2.05;;
66927;SDS011;59882;45.624;11.698;2023-08-31T06:54:39;4.73;;;2.00;;
66927;SDS011;59882;45.624;11.698;2023-08-31T06:57:04;7.23;;;2.17;;
66927;SDS011;59882;45.624;11.698;2023-08-31T06:59:30;4.43;;;2.20;;
66927;SDS011;59882;45.624;11.698;2023-08-31T07:01:56;6.00;;;1.83;;
66927;SDS011;59882;45.624;11.698;2023-08-31T07:04:21;10.45;;;2.20;;
66927;SDS011;59882;45.624;11.698;2023-08-31T07:06:47;8.23;;;2.23;;
66927;SDS011;59882;45.624;11.698;2023-08-31T07:09:12;6.00;;;2.23;;
66927;SDS011;59882;45.624;11.698;2023-08-31T07:11:38;4.80;;;2.05;;
66927;SDS011;59882;45.624;11.698;2023-08-31T07:14:04;5.60;;;2.57;;
66927;SDS011;59882;45.624;11.698;2023-08-31T07:16:29;5.63;;;2.20;;
66927;SDS011;59882;45.624;11.698;2023-08-31T07:18:55;7.13;;;1.83;;
66927;SDS011;59882;45.624;11.698;2023-08-31T07:21:20;9.53;;;2.53;;
66927;SDS011;59882;45.624;11.698;2023-08-31T07:23:47;6.57;;;2.83;;
66927;SDS011;59882;45.624;11.698;2023-08-31T07:26:13;5.85;;;2.40;;
66927;SDS011;59882;45.624;11.698;2023-08-31T07:28:40;8.55;;;1.92;;
66927;SDS011;59882;45.624;11.698;2023-08-31T07:31:06;4.90;;;2.20;;
66927;SDS011;59882;45.624;11.698;2023-08-31T07:33:33;5.25;;;2.33;;
66927;SDS011;59882;45.624;11.698;2023-08-31T07:36:02;5.13;;;1.92;;
66927;SDS011;59882;45.624;11.698;2023-08-31T07:38:29;4.47;;;2.00;;
66927;SDS011;59882;45.624;11.698;2023-08-31T07:40:55;6.32;;;2.20;;
66927;SDS011;59882;45.624;11.698;2023-08-31T07:43:21;6.57;;;2.15;;
66927;SDS011;59882;45.624;11.698;2023-08-31T07:45:46;5.27;;;2.00;;
66927;SDS011;59882;45.624;11.698;2023-08-31T07:48:12;6.78;;;2.40;;
66927;SDS011;59882;45.624;11.698;2023-08-31T07:50:40;7.23;;;2.60;;
66927;SDS011;59882;45.624;11.698;2023-08-31T07:53:06;5.05;;;2.00;;
66927;SDS011;59882;45.624;11.698;2023-08-31T07:55:32;8.32;;;2.58;;
66927;SDS011;59882;45.624;11.698;2023-08-31T07:57:58;4.90;;;1.90;;
66927;SDS011;59882;45.624;11.698;2023-08-31T08:00:24;6.57;;;2.13;;
66927;SDS011;59882;45.624;11.698;2023-08-31T08:02:49;5.33;;;1.80;;
66927;SDS011;59882;45.624;11.698;2023-08-31T08:05:15;4.23;;;1.53;;
66927;SDS011;59882;45.624;11.698;2023-08-31T08:07:41;5.83;;;1.93;;
66927;SDS011;59882;45.624;11.698;2023-08-31T08:10:07;6.43;;;1.70;;
66927;SDS011;59882;45.624;11.698;2023-08-31T08:12:40;4.57;;;1.60;;
66927;SDS011;59882;45.624;11.698;2023-08-31T08:15:11;3.70;;;1.73;;
66927;SDS011;59882;45.624;11.698;2023-08-31T08:17:37;6.68;;;1.63;;
66927;SDS011;59882;45.624;11.698;2023-08-31T08:20:04;6.03;;;1.70;;
66927;SDS011;59882;45.624;11.698;2023-08-31T08:22:31;5.40;;;2.50;;
66927;SDS011;59882;45.624;11.698;2023-08-31T08:24:57;4.85;;;1.98;;
66927;SDS011;59882;45.624;11.698;2023-08-31T08:27:22;5.33;;;1.40;;
66927;SDS011;59882;45.624;11.698;2023-08-31T08:29:48;6.55;;;1.50;;
66927;SDS011;59882;45.624;11.698;2023-08-31T08:32:14;3.93;;;1.10;;
66927;SDS011;59882;45.624;11.698;2023-08-31T08:34:40;5.35;;;1.40;;
66927;SDS011;59882;45.624;11.698;2023-08-31T08:37:05;6.73;;;1.90;;
66927;SDS011;59882;45.624;11.698;2023-08-31T08:39:31;4.40;;;1.80;;
66927;SDS011;59882;45.624;11.698;2023-08-31T08:41:57;4.93;;;2.00;;
66927;SDS011;59882;45.624;11.698;2023-08-31T08:44:26;4.60;;;1.60;;
66927;SDS011;59882;45.624;11.698;2023-08-31T08:47:01;4.75;;;1.30;;
66927;SDS011;59882;45.624;11.698;2023-08-31T08:49:29;4.40;;;1.60;;
66927;SDS011;59882;45.624;11.698;2023-08-31T08:51:57;3.60;;;1.27;;
66927;SDS011;59882;45.624;11.698;2023-08-31T08:54:24;5.68;;;1.30;;
66927;SDS011;59882;45.624;11.698;2023-08-31T08:56:50;4.85;;;0.90;;
66927;SDS011;59882;45.624;11.698;2023-08-31T08:59:16;4.28;;;0.80;;
66927;SDS011;59882;45.624;11.698;2023-08-31T09:01:42;5.40;;;1.13;;
66927;SDS011;59882;45.624;11.698;2023-08-31T09:04:09;4.28;;;0.98;;
66927;SDS011;59882;45.624;11.698;2023-08-31T09:06:35;3.05;;;0.75;;
66927;SDS011;59882;45.624;11.698;2023-08-31T09:09:00;4.30;;;0.93;;
66927;SDS011;59882;45.624;11.698;2023-08-31T09:11:26;5.43;;;1.10;;
66927;SDS011;59882;45.624;11.698;2023-08-31T09:13:52;4.28;;;1.00;;
66927;SDS011;59882;45.624;11.698;2023-08-31T09:16:26;4.60;;;0.83;;
66927;SDS011;59882;45.624;11.698;2023-08-31T09:18:54;4.18;;;0.70;;
66927;SDS011;59882;45.624;11.698;2023-08-31T09:21:20;2.85;;;0.70;;
66927;SDS011;59882;45.624;11.698;2023-08-31T09:23:55;3.00;;;0.50;;
66927;SDS011;59882;45.624;11.698;2023-08-31T09:26:22;2.70;;;0.70;;
66927;SDS011;59882;45.624;11.698;2023-08-31T09:28:48;3.13;;;0.67;;
66927;SDS011;59882;45.624;11.698;2023-08-31T09:31:14;5.10;;;0.90;;
66927;SDS011;59882;45.624;11.698;2023-08-31T09:33:40;3.77;;;0.90;;
66927;SDS011;59882;45.624;11.698;2023-08-31T09:36:17;4.50;;;1.00;;
66927;SDS011;59882;45.624;11.698;2023-08-31T09:38:45;6.53;;;1.55;;
66927;SDS011;59882;45.624;11.698;2023-08-31T09:41:11;5.03;;;0.87;;
66927;SDS011;59882;45.624;11.698;2023-08-31T09:43:38;3.45;;;0.80;;
66927;SDS011;59882;45.624;11.698;2023-08-31T09:46:04;4.18;;;0.90;;
66927;SDS011;59882;45.624;11.698;2023-08-31T09:48:31;3.90;;;0.60;;
66927;SDS011;59882;45.624;11.698;2023-08-31T09:50:57;3.20;;;0.55;;
66927;SDS011;59882;45.624;11.698;2023-08-31T09:53:26;2.90;;;0.63;;
66927;SDS011;59882;45.624;11.698;2023-08-31T09:55:55;3.38;;;0.60;;
66927;SDS011;59882;45.624;11.698;2023-08-31T09:58:22;3.85;;;0.63;;
66927;SDS011;59882;45.624;11.698;2023-08-31T10:00:48;3.97;;;0.70;;
66927;SDS011;59882;45.624;11.698;2023-08-31T10:03:16;2.83;;;0.40;;
66927;SDS011;59882;45.624;11.698;2023-08-31T10:05:45;4.53;;;0.60;;
66927;SDS011;59882;45.624;11.698;2023-08-31T10:08:12;4.47;;;0.63;;
66927;SDS011;59882;45.624;11.698;2023-08-31T10:10:39;2.47;;;0.40;;
66927;SDS011;59882;45.624;11.698;2023-08-31T10:13:06;3.47;;;0.43;;
66927;SDS011;59882;45.624;11.698;2023-08-31T10:15:32;2.83;;;0.70;;
66927;SDS011;59882;45.624;11.698;2023-08-31T10:17:59;3.63;;;0.60;;
66927;SDS011;59882;45.624;11.698;2023-08-31T10:20:26;3.65;;;0.60;;
66927;SDS011;59882;45.624;11.698;2023-08-31T10:23:03;3.22;;;0.60;;
66927;SDS011;59882;45.624;11.698;2023-08-31T10:28:17;3.58;;;0.52;;
66927;SDS011;59882;45.624;11.698;2023-08-31T10:30:47;6.47;;;0.52;;
66927;SDS011;59882;45.624;11.698;2023-08-31T10:33:33;4.07;;;0.65;;
66927;SDS011;59882;45.624;11.698;2023-08-31T10:36:10;3.40;;;0.65;;
66927;SDS011;59882;45.624;11.698;2023-08-31T10:38:46;2.50;;;0.70;;
66927;SDS011;59882;45.624;11.698;2023-08-31T10:41:25;3.25;;;0.73;;
66927;SDS011;59882;45.624;11.698;2023-08-31T10:43:56;2.90;;;0.77;;
66927;SDS011;59882;45.624;11.698;2023-08-31T10:51:35;4.67;;;1.07;;
66927;SDS011;59882;45.624;11.698;2023-08-31T10:56:31;3.80;;;0.90;;
66927;SDS011;59882;45.624;11.698;2023-08-31T10:59:00;3.17;;;0.83;;
66927;SDS011;59882;45.624;11.698;2023-08-31T11:01:50;3.47;;;0.73;;
66927;SDS011;59882;45.624;11.698;2023-08-31T11:04:19;3.08;;;0.95;;
66927;SDS011;59882;45.624;11.698;2023-08-31T11:06:46;4.65;;;0.65;;
66927;SDS011;59882;45.624;11.698;2023-08-31T11:09:20;3.33;;;0.87;;
66927;SDS011;59882;45.624;11.698;2023-08-31T11:11:47;4.25;;;0.88;;
66927;SDS011;59882;45.624;11.698;2023-08-31T11:14:13;3.95;;;1.10;;
66927;SDS011;59882;45.624;11.698;2023-08-31T11:16:41;5.78;;;1.25;;
66927;SDS011;59882;45.624;11.698;2023-08-31T11:19:07;3.80;;;1.00;;
66927;SDS011;59882;45.624;11.698;2023-08-31T11:21:33;2.65;;;0.77;;
66927;SDS011;59882;45.624;11.698;2023-08-31T11:24:01;3.42;;;0.90;;
66927;SDS011;59882;45.624;11.698;2023-08-31T11:26:29;3.63;;;0.73;;
66927;SDS011;59882;45.624;11.698;2023-08-31T11:28:56;3.13;;;0.95;;
66927;SDS011;59882;45.624;11.698;2023-08-31T11:31:25;3.97;;;0.97;;
66927;SDS011;59882;45.624;11.698;2023-08-31T11:33:51;4.20;;;0.60;;
66927;SDS011;59882;45.624;11.698;2023-08-31T11:36:19;3.38;;;0.73;;
66927;SDS011;59882;45.624;11.698;2023-08-31T11:38:44;3.63;;;0.70;;
66927;SDS011;59882;45.624;11.698;2023-08-31T11:41:12;5.10;;;1.00;;
66927;SDS011;59882;45.624;11.698;2023-08-31T11:43:37;3.28;;;0.95;;
66927;SDS011;59882;45.624;11.698;2023-08-31T11:46:03;3.40;;;0.97;;
66927;SDS011;59882;45.624;11.698;2023-08-31T11:48:30;2.92;;;0.80;;
66927;SDS011;59882;45.624;11.698;2023-08-31T11:50:57;2.92;;;1.00;;
66927;SDS011;59882;45.624;11.698;2023-08-31T11:53:23;2.85;;;1.00;;
66927;SDS011;59882;45.624;11.698;2023-08-31T11:55:50;2.45;;;1.02;;
66927;SDS011;59882;45.624;11.698;2023-08-31T11:58:16;3.43;;;1.03;;
66927;SDS011;59882;45.624;11.698;2023-08-31T12:00:42;3.10;;;1.15;;
66927;SDS011;59882;45.624;11.698;2023-08-31T12:03:08;3.42;;;1.20;;
66927;SDS011;59882;45.624;11.698;2023-08-31T12:05:47;5.57;;;1.10;;
66927;SDS011;59882;45.624;11.698;2023-08-31T12:08:16;2.60;;;0.90;;
66927;SDS011;59882;45.624;11.698;2023-08-31T12:10:50;3.53;;;0.90;;
66927;SDS011;59882;45.624;11.698;2023-08-31T12:13:15;5.03;;;1.17;;
66927;SDS011;59882;45.624;11.698;2023-08-31T12:15:41;4.90;;;1.27;;
66927;SDS011;59882;45.624;11.698;2023-08-31T12:18:10;4.20;;;1.20;;
66927;SDS011;59882;45.624;11.698;2023-08-31T12:20:46;3.50;;;1.02;;
66927;SDS011;59882;45.624;11.698;2023-08-31T12:23:13;3.27;;;1.23;;
66927;SDS011;59882;45.624;11.698;2023-08-31T12:25:59;3.42;;;1.23;;
66927;SDS011;59882;45.624;11.698;2023-08-31T12:28:26;4.82;;;1.17;;
66927;SDS011;59882;45.624;11.698;2023-08-31T12:30:54;3.20;;;1.20;;
66927;SDS011;59882;45.624;11.698;2023-08-31T12:33:22;6.03;;;1.38;;
66927;SDS011;59882;45.624;11.698;2023-08-31T12:35:48;3.35;;;1.10;;
66927;SDS011;59882;45.624;11.698;2023-08-31T12:38:14;2.70;;;1.17;;
66927;SDS011;59882;45.624;11.698;2023-08-31T12:40:40;3.83;;;1.38;;
66927;SDS011;59882;45.624;11.698;2023-08-31T12:43:05;4.43;;;1.50;;
66927;SDS011;59882;45.624;11.698;2023-08-31T12:45:31;4.03;;;1.35;;
66927;SDS011;59882;45.624;11.698;2023-08-31T12:47:58;3.03;;;1.40;;
66927;SDS011;59882;45.624;11.698;2023-08-31T12:50:24;3.70;;;1.42;;
66927;SDS011;59882;45.624;11.698;2023-08-31T12:52:50;4.43;;;1.50;;
66927;SDS011;59882;45.624;11.698;2023-08-31T12:55:16;2.80;;;1.23;;
66927;SDS011;59882;45.624;11.698;2023-08-31T12:57:42;3.30;;;1.00;;
66927;SDS011;59882;45.624;11.698;2023-08-31T13:00:08;5.10;;;1.40;;
66927;SDS011;59882;45.624;11.698;2023-08-31T13:02:38;3.10;;;1.38;;
66927;SDS011;59882;45.624;11.698;2023-08-31T13:05:04;4.05;;;1.50;;
66927;SDS011;59882;45.624;11.698;2023-08-31T13:07:30;3.95;;;1.88;;
66927;SDS011;59882;45.624;11.698;2023-08-31T13:09:57;3.28;;;1.55;;
66927;SDS011;59882;45.624;11.698;2023-08-31T13:12:25;3.15;;;1.52;;
66927;SDS011;59882;45.624;11.698;2023-08-31T13:14:51;3.65;;;1.63;;
66927;SDS011;59882;45.624;11.698;2023-08-31T13:17:16;4.53;;;1.80;;
66927;SDS011;59882;45.624;11.698;2023-08-31T13:19:42;3.80;;;1.70;;
66927;SDS011;59882;45.624;11.698;2023-08-31T13:22:07;5.80;;;1.77;;
66927;SDS011;59882;45.624;11.698;2023-08-31T13:24:33;4.17;;;1.60;;
66927;SDS011;59882;45.624;11.698;2023-08-31T13:26:58;3.15;;;1.58;;
66927;SDS011;59882;45.624;11.698;2023-08-31T13:29:24;4.53;;;1.53;;
66927;SDS011;59882;45.624;11.698;2023-08-31T13:31:50;3.17;;;1.17;;
66927;SDS011;59882;45.624;11.698;2023-08-31T13:34:15;3.90;;;1.83;;
66927;SDS011;59882;45.624;11.698;2023-08-31T13:36:41;4.90;;;1.80;;
66927;SDS011;59882;45.624;11.698;2023-08-31T13:39:07;4.40;;;2.00;;
66927;SDS011;59882;45.624;11.698;2023-08-31T13:41:32;4.50;;;1.97;;
66927;SDS011;59882;45.624;11.698;2023-08-31T13:43:58;3.30;;;1.83;;
66927;SDS011;59882;45.624;11.698;2023-08-31T13:46:24;4.80;;;2.40;;
66927;SDS011;59882;45.624;11.698;2023-08-31T13:48:50;3.60;;;1.77;;
66927;SDS011;59882;45.624;11.698;2023-08-31T13:51:15;3.50;;;2.20;;
66927;SDS011;59882;45.624;11.698;2023-08-31T13:53:41;3.58;;;2.15;;
66927;SDS011;59882;45.624;11.698;2023-08-31T13:56:06;5.10;;;2.00;;
66927;SDS011;59882;45.624;11.698;2023-08-31T13:58:32;3.83;;;1.93;;
66927;SDS011;59882;45.624;11.698;2023-08-31T14:01:00;3.78;;;1.90;;
66927;SDS011;59882;45.624;11.698;2023-08-31T14:03:28;3.47;;;1.33;;
66927;SDS011;59882;45.624;11.698;2023-08-31T14:05:54;3.47;;;1.80;;
66927;SDS011;59882;45.624;11.698;2023-08-31T14:08:20;4.78;;;1.42;;
66927;SDS011;59882;45.624;11.698;2023-08-31T14:10:45;3.40;;;1.70;;
66927;SDS011;59882;45.624;11.698;2023-08-31T14:13:11;5.90;;;1.77;;
66927;SDS011;59882;45.624;11.698;2023-08-31T14:15:37;6.20;;;1.60;;
66927;SDS011;59882;45.624;11.698;2023-08-31T14:18:09;4.47;;;1.50;;
66927;SDS011;59882;45.624;11.698;2023-08-31T14:20:34;3.50;;;1.50;;
66927;SDS011;59882;45.624;11.698;2023-08-31T14:23:00;3.78;;;1.50;;
66927;SDS011;59882;45.624;11.698;2023-08-31T14:25:26;5.77;;;1.90;;
66927;SDS011;59882;45.624;11.698;2023-08-31T14:27:51;4.07;;;1.87;;
66927;SDS011;59882;45.624;11.698;2023-08-31T14:30:17;3.85;;;1.80;;
66927;SDS011;59882;45.624;11.698;2023-08-31T14:32:42;5.77;;;2.10;;
66927;SDS011;59882;45.624;11.698;2023-08-31T14:35:08;4.57;;;2.17;;
66927;SDS011;59882;45.624;11.698;2023-08-31T14:37:34;5.90;;;1.93;;
66927;SDS011;59882;45.624;11.698;2023-08-31T14:39:59;3.85;;;1.77;;
66927;SDS011;59882;45.624;11.698;2023-08-31T14:42:25;3.67;;;1.60;;
66927;SDS011;59882;45.624;11.698;2023-08-31T14:44:51;4.63;;;1.47;;
66927;SDS011;59882;45.624;11.698;2023-08-31T14:47:16;3.22;;;1.50;;
66927;SDS011;59882;45.624;11.698;2023-08-31T14:49:42;4.37;;;1.70;;
66927;SDS011;59882;45.624;11.698;2023-08-31T14:52:08;3.90;;;1.60;;